sensor_id;sensor_type;location;lat;lon;timestamp;pressure;altitude;pressure_sealevel;temperature;humidity
54910;BME280;63189;51.240;9.964;2023-04-22T00:02:19;97316.66;;;12.02;69.89
54910;BME280;63189;51.240;9.964;2023-04-22T00:04:47;97330.06;;;12.13;69.85
54910;BME280;63189;51.240;9.964;2023-04-22T00:07:14;97333.59;;;12.12;69.64
54910;BME280;63189;51.240;9.964;2023-04-22T00:09:40;97326.97;;;12.05;69.66
54910;BME280;63189;51.240;9.964;2023-04-22T00:12:06;97329.81;;;12.00;70.30
54910;BME280;63189;51.240;9.964;2023-04-22T00:14:31;97324.00;;;11.94;70.23
54910;BME280;63189;51.240;9.964;2023-04-22T00:16:56;97324.16;;;11.91;70.37
54910;BME280;63189;51.240;9.964;2023-04-22T00:19:22;97328.03;;;11.82;70.82
54910;BME280;63189;51.240;9.964;2023-04-22T00:21:47;97327.88;;;11.85;70.76
54910;BME280;63189;51.240;9.964;2023-04-22T00:24:14;97335.72;;;11.85;70.67
54910;BME280;63189;51.240;9.964;2023-04-22T00:26:39;97332.31;;;11.83;70.73
54910;BME280;63189;51.240;9.964;2023-04-22T00:29:04;97320.25;;;11.80;70.50
54910;BME280;63189;51.240;9.964;2023-04-22T00:31:30;97324.56;;;11.81;70.52
54910;BME280;63189;51.240;9.964;2023-04-22T00:33:55;97325.53;;;11.79;70.45
54910;BME280;63189;51.240;9.964;2023-04-22T00:36:20;97326.50;;;11.76;70.94
54910;BME280;63189;51.240;9.964;2023-04-22T00:38:49;97320.72;;;11.70;71.15
54910;BME280;63189;51.240;9.964;2023-04-22T00:41:17;97327.88;;;11.65;71.10
54910;BME280;63189;51.240;9.964;2023-04-22T00:43:43;97323.66;;;11.62;71.60
54910;BME280;63189;51.240;9.964;2023-04-22T00:46:09;97335.03;;;11.61;71.32
54910;BME280;63189;51.240;9.964;2023-04-22T00:48:36;97327.34;;;11.58;71.45
54910;BME280;63189;51.240;9.964;2023-04-22T00:51:02;97322.53;;;11.49;71.68
54910;BME280;63189;51.240;9.964;2023-04-22T00:53:27;97341.63;;;11.49;71.75
54910;BME280;63189;51.240;9.964;2023-04-22T00:55:53;97339.16;;;11.46;72.03
54910;BME280;63189;51.240;9.964;2023-04-22T00:58:19;97344.66;;;11.40;72.12
54910;BME280;63189;51.240;9.964;2023-04-22T01:00:45;97334.53;;;11.33;72.20
54910;BME280;63189;51.240;9.964;2023-04-22T01:03:10;97330.38;;;11.28;72.14
54910;BME280;63189;51.240;9.964;2023-04-22T01:05:36;97333.75;;;11.31;72.28
54910;BME280;63189;51.240;9.964;2023-04-22T01:08:02;97327.09;;;11.23;72.48
54910;BME280;63189;51.240;9.964;2023-04-22T01:10:28;97335.72;;;11.25;72.94
54910;BME280;63189;51.240;9.964;2023-04-22T01:12:53;97330.75;;;11.19;72.47
54910;BME280;63189;51.240;9.964;2023-04-22T01:15:18;97338.66;;;11.18;72.68
54910;BME280;63189;51.240;9.964;2023-04-22T01:17:44;97333.56;;;11.15;72.86
54910;BME280;63189;51.240;9.964;2023-04-22T01:20:10;97321.56;;;11.11;72.72
54910;BME280;63189;51.240;9.964;2023-04-22T01:22:40;97339.03;;;11.09;73.21
54910;BME280;63189;51.240;9.964;2023-04-22T01:25:07;97341.06;;;11.02;73.79
54910;BME280;63189;51.240;9.964;2023-04-22T01:27:33;97335.19;;;10.97;73.99
54910;BME280;63189;51.240;9.964;2023-04-22T01:30:01;97339.63;;;10.95;74.10
54910;BME280;63189;51.240;9.964;2023-04-22T01:32:26;97335.44;;;10.91;74.39
54910;BME280;63189;51.240;9.964;2023-04-22T01:34:54;97339.09;;;10.87;74.39
54910;BME280;63189;51.240;9.964;2023-04-22T01:37:20;97330.50;;;10.85;74.15
54910;BME280;63189;51.240;9.964;2023-04-22T01:39:46;97335.81;;;10.82;74.17
54910;BME280;63189;51.240;9.964;2023-04-22T01:42:11;97340.09;;;10.84;74.42
54910;BME280;63189;51.240;9.964;2023-04-22T01:44:37;97328.81;;;10.84;74.35
54910;BME280;63189;51.240;9.964;2023-04-22T01:47:02;97338.25;;;10.86;74.54
54910;BME280;63189;51.240;9.964;2023-04-22T01:49:28;97336.56;;;10.85;74.32
54910;BME280;63189;51.240;9.964;2023-04-22T01:51:54;97334.03;;;10.84;74.46
54910;BME280;63189;51.240;9.964;2023-04-22T01:54:19;97335.94;;;10.79;74.79
54910;BME280;63189;51.240;9.964;2023-04-22T01:56:52;97329.88;;;10.78;75.13
54910;BME280;63189;51.240;9.964;2023-04-22T01:59:22;97337.00;;;10.75;75.29
54910;BME280;63189;51.240;9.964;2023-04-22T02:01:47;97325.31;;;10.63;75.11
54910;BME280;63189;51.240;9.964;2023-04-22T02:04:12;97336.25;;;10.71;75.45
54910;BME280;63189;51.240;9.964;2023-04-22T02:06:38;97344.28;;;10.66;75.52
54910;BME280;63189;51.240;9.964;2023-04-22T02:09:03;97345.06;;;10.68;75.57
54910;BME280;63189;51.240;9.964;2023-04-22T02:11:29;97340.91;;;10.64;76.05
54910;BME280;63189;51.240;9.964;2023-04-22T02:13:54;97341.81;;;10.63;75.85
54910;BME280;63189;51.240;9.964;2023-04-22T02:16:21;97341.91;;;10.60;76.23
54910;BME280;63189;51.240;9.964;2023-04-22T02:18:46;97349.78;;;10.59;76.37
54910;BME280;63189;51.240;9.964;2023-04-22T02:21:12;97353.31;;;10.58;76.36
54910;BME280;63189;51.240;9.964;2023-04-22T02:23:38;97343.81;;;10.57;76.55
54910;BME280;63189;51.240;9.964;2023-04-22T02:26:04;97349.78;;;10.59;76.45
54910;BME280;63189;51.240;9.964;2023-04-22T02:28:30;97326.69;;;10.50;76.78
54910;BME280;63189;51.240;9.964;2023-04-22T02:30:56;97338.88;;;10.49;76.57
54910;BME280;63189;51.240;9.964;2023-04-22T02:33:21;97335.44;;;10.49;76.67
54910;BME280;63189;51.240;9.964;2023-04-22T02:35:47;97336.34;;;10.48;76.86
54910;BME280;63189;51.240;9.964;2023-04-22T02:38:12;97335.56;;;10.46;77.05
54910;BME280;63189;51.240;9.964;2023-04-22T02:40:37;97336.41;;;10.46;77.38
54910;BME280;63189;51.240;9.964;2023-04-22T02:43:03;97346.78;;;10.48;77.06
54910;BME280;63189;51.240;9.964;2023-04-22T02:45:28;97327.97;;;10.39;76.78
54910;BME280;63189;51.240;9.964;2023-04-22T02:47:54;97348.47;;;10.49;77.10
54910;BME280;63189;51.240;9.964;2023-04-22T02:50:19;97351.00;;;10.50;77.35
54910;BME280;63189;51.240;9.964;2023-04-22T02:52:45;97334.78;;;10.44;77.02
54910;BME280;63189;51.240;9.964;2023-04-22T02:55:10;97347.56;;;10.50;76.60
54910;BME280;63189;51.240;9.964;2023-04-22T02:57:35;97344.94;;;10.50;76.83
54910;BME280;63189;51.240;9.964;2023-04-22T03:00:01;97339.88;;;10.47;76.88
54910;BME280;63189;51.240;9.964;2023-04-22T03:02:26;97335.56;;;10.46;77.36
54910;BME280;63189;51.240;9.964;2023-04-22T03:04:51;97341.56;;;10.48;77.22
54910;BME280;63189;51.240;9.964;2023-04-22T03:07:18;97338.34;;;10.41;77.56
54910;BME280;63189;51.240;9.964;2023-04-22T03:09:44;97344.38;;;10.43;77.22
54910;BME280;63189;51.240;9.964;2023-04-22T03:12:09;97346.97;;;10.43;77.07
54910;BME280;63189;51.240;9.964;2023-04-22T03:14:34;97351.19;;;10.46;77.29
54910;BME280;63189;51.240;9.964;2023-04-22T03:17:00;97341.78;;;10.41;77.91
54910;BME280;63189;51.240;9.964;2023-04-22T03:19:25;97344.47;;;10.40;78.15
54910;BME280;63189;51.240;9.964;2023-04-22T03:21:50;97349.66;;;10.40;78.20
54910;BME280;63189;51.240;9.964;2023-04-22T03:24:15;97343.69;;;10.38;78.35
54910;BME280;63189;51.240;9.964;2023-04-22T03:26:41;97344.66;;;10.35;77.65
54910;BME280;63189;51.240;9.964;2023-04-22T03:29:06;97327.75;;;10.24;78.62
54910;BME280;63189;51.240;9.964;2023-04-22T03:31:31;97339.56;;;10.32;79.15
54910;BME280;63189;51.240;9.964;2023-04-22T03:33:57;97341.34;;;10.32;78.64
54910;BME280;63189;51.240;9.964;2023-04-22T03:36:22;97343.03;;;10.33;78.79
54910;BME280;63189;51.240;9.964;2023-04-22T03:38:47;97341.44;;;10.29;78.99
54910;BME280;63189;51.240;9.964;2023-04-22T03:41:13;97339.81;;;10.26;78.86
54910;BME280;63189;51.240;9.964;2023-04-22T03:43:39;97334.66;;;10.25;78.73
54910;BME280;63189;51.240;9.964;2023-04-22T03:46:04;97336.47;;;10.23;79.11
54910;BME280;63189;51.240;9.964;2023-04-22T03:48:30;97333.03;;;10.22;78.94
54910;BME280;63189;51.240;9.964;2023-04-22T03:50:59;97323.66;;;10.17;79.37
54910;BME280;63189;51.240;9.964;2023-04-22T03:53:25;97336.53;;;10.20;79.76
54910;BME280;63189;51.240;9.964;2023-04-22T03:55:50;97334.00;;;10.18;79.41
54910;BME280;63189;51.240;9.964;2023-04-22T03:58:16;97327.22;;;10.14;79.79
54910;BME280;63189;51.240;9.964;2023-04-22T04:00:41;97329.91;;;10.12;79.79
54910;BME280;63189;51.240;9.964;2023-04-22T04:03:06;97327.38;;;10.09;79.81
54910;BME280;63189;51.240;9.964;2023-04-22T04:05:32;97330.75;;;10.13;79.95
54910;BME280;63189;51.240;9.964;2023-04-22T04:07:57;97328.91;;;10.15;79.06
54910;BME280;63189;51.240;9.964;2023-04-22T04:10:22;97327.22;;;10.14;79.27
54910;BME280;63189;51.240;9.964;2023-04-22T04:12:48;97328.84;;;10.17;79.62
54910;BME280;63189;51.240;9.964;2023-04-22T04:15:13;97328.06;;;10.15;79.99
54910;BME280;63189;51.240;9.964;2023-04-22T04:17:38;97317.72;;;10.13;79.84
54910;BME280;63189;51.240;9.964;2023-04-22T04:20:04;97326.38;;;10.13;79.93
54910;BME280;63189;51.240;9.964;2023-04-22T04:22:29;97334.97;;;10.16;79.96
54910;BME280;63189;51.240;9.964;2023-04-22T04:24:55;97331.66;;;10.12;79.94
54910;BME280;63189;51.240;9.964;2023-04-22T04:27:21;97335.94;;;10.13;79.73
54910;BME280;63189;51.240;9.964;2023-04-22T04:29:48;97320.31;;;10.13;79.78
54910;BME280;63189;51.240;9.964;2023-04-22T04:32:14;97337.50;;;10.17;79.82
54910;BME280;63189;51.240;9.964;2023-04-22T04:34:39;97327.09;;;10.17;79.97
54910;BME280;63189;51.240;9.964;2023-04-22T04:37:04;97327.94;;;10.18;79.58
54910;BME280;63189;51.240;9.964;2023-04-22T04:39:30;97326.13;;;10.20;79.52
54910;BME280;63189;51.240;9.964;2023-04-22T04:41:57;97324.22;;;10.25;79.63
54910;BME280;63189;51.240;9.964;2023-04-22T04:44:25;97326.72;;;10.28;79.37
54910;BME280;63189;51.240;9.964;2023-04-22T04:46:51;97321.44;;;10.29;80.58
54910;BME280;63189;51.240;9.964;2023-04-22T04:49:16;97330.91;;;10.32;80.21
54910;BME280;63189;51.240;9.964;2023-04-22T04:51:42;97329.94;;;10.34;80.16
54910;BME280;63189;51.240;9.964;2023-04-22T04:54:07;97328.81;;;10.40;79.69
54910;BME280;63189;51.240;9.964;2023-04-22T04:56:33;97328.72;;;10.43;79.95
54910;BME280;63189;51.240;9.964;2023-04-22T04:58:58;97326.91;;;10.45;80.67
54910;BME280;63189;51.240;9.964;2023-04-22T05:01:23;97321.56;;;10.48;79.08
54910;BME280;63189;51.240;9.964;2023-04-22T05:03:49;97339.44;;;10.57;79.86
54910;BME280;63189;51.240;9.964;2023-04-22T05:06:14;97329.78;;;10.59;79.45
54910;BME280;63189;51.240;9.964;2023-04-22T05:08:39;97327.00;;;10.64;79.63
54910;BME280;63189;51.240;9.964;2023-04-22T05:11:05;97337.09;;;10.72;80.54
54910;BME280;63189;51.240;9.964;2023-04-22T05:13:30;97342.16;;;10.76;79.68
54910;BME280;63189;51.240;9.964;2023-04-22T05:15:56;97339.41;;;10.79;79.07
54910;BME280;63189;51.240;9.964;2023-04-22T05:18:21;97345.94;;;10.89;78.33
54910;BME280;63189;51.240;9.964;2023-04-22T05:20:46;97347.47;;;10.95;79.77
54910;BME280;63189;51.240;9.964;2023-04-22T05:23:12;97342.25;;;10.95;79.20
54910;BME280;63189;51.240;9.964;2023-04-22T05:25:37;97345.50;;;11.00;78.95
54910;BME280;63189;51.240;9.964;2023-04-22T05:28:02;97343.41;;;11.08;78.38
54910;BME280;63189;51.240;9.964;2023-04-22T05:30:28;97344.97;;;11.12;77.69
54910;BME280;63189;51.240;9.964;2023-04-22T05:32:53;97348.09;;;11.20;77.89
54910;BME280;63189;51.240;9.964;2023-04-22T05:35:18;97342.75;;;11.23;78.37
54910;BME280;63189;51.240;9.964;2023-04-22T05:37:44;97346.03;;;11.28;77.61
54910;BME280;63189;51.240;9.964;2023-04-22T05:40:09;97345.75;;;11.35;76.64
54910;BME280;63189;51.240;9.964;2023-04-22T05:42:35;97351.22;;;11.49;76.67
54910;BME280;63189;51.240;9.964;2023-04-22T05:45:00;97358.25;;;11.67;76.01
54910;BME280;63189;51.240;9.964;2023-04-22T05:47:26;97351.66;;;11.79;74.66
54910;BME280;63189;51.240;9.964;2023-04-22T05:49:51;97340.75;;;11.90;74.21
54910;BME280;63189;51.240;9.964;2023-04-22T05:52:16;97341.53;;;12.10;73.70
54910;BME280;63189;51.240;9.964;2023-04-22T05:54:42;97346.72;;;12.29;72.91
54910;BME280;63189;51.240;9.964;2023-04-22T05:57:08;97330.47;;;12.41;72.53
54910;BME280;63189;51.240;9.964;2023-04-22T05:59:33;97336.97;;;12.52;72.78
54910;BME280;63189;51.240;9.964;2023-04-22T06:01:58;97337.50;;;12.58;72.67
54910;BME280;63189;51.240;9.964;2023-04-22T06:04:24;97332.75;;;12.66;72.58
54910;BME280;63189;51.240;9.964;2023-04-22T06:06:49;97327.81;;;12.78;71.91
54910;BME280;63189;51.240;9.964;2023-04-22T06:09:17;97322.53;;;12.96;71.58
54910;BME280;63189;51.240;9.964;2023-04-22T06:11:43;97320.22;;;13.08;71.85
54910;BME280;63189;51.240;9.964;2023-04-22T06:14:08;97326.00;;;13.14;71.02
54910;BME280;63189;51.240;9.964;2023-04-22T06:16:34;97328.25;;;13.22;70.83
54910;BME280;63189;51.240;9.964;2023-04-22T06:18:59;97326.41;;;13.24;70.77
54910;BME280;63189;51.240;9.964;2023-04-22T06:21:25;97328.31;;;13.38;70.28
54910;BME280;63189;51.240;9.964;2023-04-22T06:23:50;97331.75;;;13.55;69.00
54910;BME280;63189;51.240;9.964;2023-04-22T06:26:16;97328.00;;;13.77;69.46
54910;BME280;63189;51.240;9.964;2023-04-22T06:28:41;97322.78;;;13.77;66.45
54910;BME280;63189;51.240;9.964;2023-04-22T06:31:06;97330.69;;;13.75;68.25
54910;BME280;63189;51.240;9.964;2023-04-22T06:33:32;97328.41;;;13.85;67.11
54910;BME280;63189;51.240;9.964;2023-04-22T06:35:58;97315.25;;;14.02;67.67
54910;BME280;63189;51.240;9.964;2023-04-22T06:38:23;97313.00;;;14.12;66.06
54910;BME280;63189;51.240;9.964;2023-04-22T06:40:48;97305.13;;;14.12;66.07
54910;BME280;63189;51.240;9.964;2023-04-22T06:43:14;97306.72;;;14.14;64.67
54910;BME280;63189;51.240;9.964;2023-04-22T06:45:41;97306.03;;;14.27;65.53
54910;BME280;63189;51.240;9.964;2023-04-22T06:48:07;97309.34;;;14.30;66.26
54910;BME280;63189;51.240;9.964;2023-04-22T06:50:32;97324.31;;;14.44;64.72
54910;BME280;63189;51.240;9.964;2023-04-22T06:52:57;97323.13;;;14.65;65.12
54910;BME280;63189;51.240;9.964;2023-04-22T06:55:23;97325.66;;;14.83;64.20
54910;BME280;63189;51.240;9.964;2023-04-22T06:57:49;97324.34;;;14.90;65.30
54910;BME280;63189;51.240;9.964;2023-04-22T07:00:15;97315.19;;;14.97;64.28
54910;BME280;63189;51.240;9.964;2023-04-22T07:02:40;97313.53;;;15.10;63.60
54910;BME280;63189;51.240;9.964;2023-04-22T07:05:06;97304.16;;;15.06;62.32
54910;BME280;63189;51.240;9.964;2023-04-22T07:07:31;97303.66;;;14.99;63.90
54910;BME280;63189;51.240;9.964;2023-04-22T07:09:57;97303.53;;;14.87;63.34
54910;BME280;63189;51.240;9.964;2023-04-22T07:12:22;97302.59;;;14.88;62.77
54910;BME280;63189;51.240;9.964;2023-04-22T07:14:49;97307.75;;;14.89;61.45
54910;BME280;63189;51.240;9.964;2023-04-22T07:17:15;97299.94;;;15.04;63.32
54910;BME280;63189;51.240;9.964;2023-04-22T07:19:43;97304.38;;;15.17;61.89
54910;BME280;63189;51.240;9.964;2023-04-22T07:22:08;97307.59;;;15.37;60.02
54910;BME280;63189;51.240;9.964;2023-04-22T07:24:34;97305.28;;;15.61;60.43
54910;BME280;63189;51.240;9.964;2023-04-22T07:26:59;97311.75;;;15.98;59.92
54910;BME280;63189;51.240;9.964;2023-04-22T07:29:26;97306.47;;;16.12;58.51
54910;BME280;63189;51.240;9.964;2023-04-22T07:31:52;97297.38;;;16.44;58.77
54910;BME280;63189;51.240;9.964;2023-04-22T07:34:17;97298.81;;;16.63;58.22
54910;BME280;63189;51.240;9.964;2023-04-22T07:36:42;97303.31;;;16.75;56.15
54910;BME280;63189;51.240;9.964;2023-04-22T07:39:08;97305.34;;;16.84;58.57
54910;BME280;63189;51.240;9.964;2023-04-22T07:41:34;97296.44;;;17.12;58.61
54910;BME280;63189;51.240;9.964;2023-04-22T07:44:00;97299.53;;;17.31;57.96
54910;BME280;63189;51.240;9.964;2023-04-22T07:46:25;97300.56;;;17.29;56.85
54910;BME280;63189;51.240;9.964;2023-04-22T07:48:51;97300.59;;;17.54;56.94
54910;BME280;63189;51.240;9.964;2023-04-22T07:51:16;97305.13;;;17.65;54.70
54910;BME280;63189;51.240;9.964;2023-04-22T07:53:41;97299.34;;;17.85;55.67
54910;BME280;63189;51.240;9.964;2023-04-22T07:56:07;97291.31;;;17.87;53.55
54910;BME280;63189;51.240;9.964;2023-04-22T07:58:32;97294.28;;;17.70;54.86
54910;BME280;63189;51.240;9.964;2023-04-22T08:00:57;97294.06;;;17.85;52.16
54910;BME280;63189;51.240;9.964;2023-04-22T08:03:23;97300.94;;;18.12;53.25
54910;BME280;63189;51.240;9.964;2023-04-22T08:05:48;97292.75;;;18.04;52.47
54910;BME280;63189;51.240;9.964;2023-04-22T08:08:14;97286.16;;;18.22;52.07
54910;BME280;63189;51.240;9.964;2023-04-22T08:10:39;97293.03;;;18.25;51.42
54910;BME280;63189;51.240;9.964;2023-04-22T08:13:05;97291.97;;;18.51;52.05
54910;BME280;63189;51.240;9.964;2023-04-22T08:15:30;97292.56;;;18.67;51.23
54910;BME280;63189;51.240;9.964;2023-04-22T08:17:59;97280.50;;;18.63;50.93
54910;BME280;63189;51.240;9.964;2023-04-22T08:20:24;97281.16;;;18.67;50.59
54910;BME280;63189;51.240;9.964;2023-04-22T08:22:50;97276.78;;;18.79;52.32
54910;BME280;63189;51.240;9.964;2023-04-22T08:25:21;97269.47;;;18.82;52.09
54910;BME280;63189;51.240;9.964;2023-04-22T08:27:46;97268.16;;;18.88;50.24
54910;BME280;63189;51.240;9.964;2023-04-22T08:30:12;97276.41;;;18.83;50.90
54910;BME280;63189;51.240;9.964;2023-04-22T08:32:37;97264.34;;;18.92;51.28
54910;BME280;63189;51.240;9.964;2023-04-22T08:35:05;97262.53;;;18.92;50.85
54910;BME280;63189;51.240;9.964;2023-04-22T08:37:31;97259.97;;;18.80;51.91
54910;BME280;63189;51.240;9.964;2023-04-22T08:39:56;97269.84;;;18.89;50.48
54910;BME280;63189;51.240;9.964;2023-04-22T08:42:22;97266.88;;;19.04;51.37
54910;BME280;63189;51.240;9.964;2023-04-22T08:44:47;97261.25;;;19.09;51.05
54910;BME280;63189;51.240;9.964;2023-04-22T08:47:13;97257.34;;;19.37;51.76
54910;BME280;63189;51.240;9.964;2023-04-22T08:49:41;97263.72;;;19.46;49.96
54910;BME280;63189;51.240;9.964;2023-04-22T08:52:06;97256.88;;;19.43;48.58
54910;BME280;63189;51.240;9.964;2023-04-22T08:54:33;97254.22;;;19.43;49.50
54910;BME280;63189;51.240;9.964;2023-04-22T08:57:01;97251.84;;;19.51;49.71
54910;BME280;63189;51.240;9.964;2023-04-22T08:59:30;97250.53;;;19.68;48.94
54910;BME280;63189;51.240;9.964;2023-04-22T09:01:56;97265.56;;;19.79;50.90
54910;BME280;63189;51.240;9.964;2023-04-22T09:04:22;97258.97;;;19.62;47.67
54910;BME280;63189;51.240;9.964;2023-04-22T09:06:48;97251.50;;;19.56;49.40
54910;BME280;63189;51.240;9.964;2023-04-22T09:09:14;97251.50;;;19.56;49.80
54910;BME280;63189;51.240;9.964;2023-04-22T09:11:40;97250.19;;;19.62;49.92
54910;BME280;63189;51.240;9.964;2023-04-22T09:14:05;97269.69;;;19.72;49.51
54910;BME280;63189;51.240;9.964;2023-04-22T09:16:31;97259.44;;;19.78;47.63
54910;BME280;63189;51.240;9.964;2023-04-22T09:18:57;97258.59;;;19.78;48.81
54910;BME280;63189;51.240;9.964;2023-04-22T09:21:25;97258.59;;;19.78;47.89
54910;BME280;63189;51.240;9.964;2023-04-22T09:23:55;97267.25;;;19.80;48.24
54910;BME280;63189;51.240;9.964;2023-04-22T09:26:22;97261.13;;;19.79;48.86
54910;BME280;63189;51.240;9.964;2023-04-22T09:28:53;97250.66;;;19.89;47.66
54910;BME280;63189;51.240;9.964;2023-04-22T09:31:20;97255.84;;;20.02;47.92
54910;BME280;63189;51.240;9.964;2023-04-22T09:33:53;97256.63;;;20.25;49.82
54910;BME280;63189;51.240;9.964;2023-04-22T09:36:30;97268.41;;;20.43;50.32
54910;BME280;63189;51.240;9.964;2023-04-22T09:39:05;97253.38;;;20.32;47.40
54910;BME280;63189;51.240;9.964;2023-04-22T09:41:33;97246.19;;;20.12;47.18
54910;BME280;63189;51.240;9.964;2023-04-22T09:44:00;97267.47;;;19.99;46.49
54910;BME280;63189;51.240;9.964;2023-04-22T09:46:27;97264.72;;;20.12;51.67
54910;BME280;63189;51.240;9.964;2023-04-22T09:49:02;97260.00;;;20.27;46.82
54910;BME280;63189;51.240;9.964;2023-04-22T09:51:30;97256.97;;;20.42;46.97
54910;BME280;63189;51.240;9.964;2023-04-22T09:54:03;97259.59;;;20.42;46.50
54910;BME280;63189;51.240;9.964;2023-04-22T09:56:47;97260.69;;;20.40;48.31
54910;BME280;63189;51.240;9.964;2023-04-22T09:59:17;97246.00;;;20.36;47.93
54910;BME280;63189;51.240;9.964;2023-04-22T10:01:44;97253.81;;;20.49;49.40
54910;BME280;63189;51.240;9.964;2023-04-22T10:04:09;97247.16;;;20.65;50.79
54910;BME280;63189;51.240;9.964;2023-04-22T10:06:35;97242.13;;;20.83;47.27
54910;BME280;63189;51.240;9.964;2023-04-22T10:09:02;97247.88;;;20.67;45.38
54910;BME280;63189;51.240;9.964;2023-04-22T10:11:27;97236.44;;;20.67;47.58
54910;BME280;63189;51.240;9.964;2023-04-22T10:13:53;97233.88;;;20.77;46.29
54910;BME280;63189;51.240;9.964;2023-04-22T10:16:20;97234.69;;;20.77;47.83
54910;BME280;63189;51.240;9.964;2023-04-22T10:18:47;97230.09;;;20.79;46.24
54910;BME280;63189;51.240;9.964;2023-04-22T10:21:13;97226.38;;;21.02;48.41
54910;BME280;63189;51.240;9.964;2023-04-22T10:23:45;97224.94;;;21.19;47.58
54910;BME280;63189;51.240;9.964;2023-04-22T10:26:10;97233.44;;;21.34;48.82
54910;BME280;63189;51.240;9.964;2023-04-22T10:28:41;97223.13;;;21.20;45.81
54910;BME280;63189;51.240;9.964;2023-04-22T10:31:19;97209.31;;;21.37;45.76
54910;BME280;63189;51.240;9.964;2023-04-22T10:33:45;97216.31;;;21.38;46.79
54910;BME280;63189;51.240;9.964;2023-04-22T10:41:14;97221.41;;;21.30;45.99
54910;BME280;63189;51.240;9.964;2023-04-22T10:43:47;97203.13;;;21.27;45.33
54910;BME280;63189;51.240;9.964;2023-04-22T10:48:57;97214.16;;;21.32;44.98
54910;BME280;63189;51.240;9.964;2023-04-22T10:51:52;97204.22;;;21.55;49.97
54910;BME280;63189;51.240;9.964;2023-04-22T10:57:07;97191.59;;;21.68;42.99
54910;BME280;63189;51.240;9.964;2023-04-22T10:59:40;97184.91;;;21.83;45.67
54910;BME280;63189;51.240;9.964;2023-04-22T11:02:07;97198.91;;;21.95;48.89
54910;BME280;63189;51.240;9.964;2023-04-22T11:04:33;97194.81;;;21.72;43.53
54910;BME280;63189;51.240;9.964;2023-04-22T11:09:44;97194.41;;;21.46;42.76
54910;BME280;63189;51.240;9.964;2023-04-22T11:17:32;97185.13;;;21.10;42.29
54910;BME280;63189;51.240;9.964;2023-04-22T11:19:58;97199.34;;;21.09;44.58
54910;BME280;63189;51.240;9.964;2023-04-22T11:22:24;97190.75;;;21.16;43.89
54910;BME280;63189;51.240;9.964;2023-04-22T11:24:54;97175.50;;;21.29;44.06
54910;BME280;63189;51.240;9.964;2023-04-22T11:27:19;97184.78;;;21.24;42.56
54910;BME280;63189;51.240;9.964;2023-04-22T11:30:00;97179.34;;;21.25;44.83
54910;BME280;63189;51.240;9.964;2023-04-22T11:32:27;97171.88;;;21.30;44.29
54910;BME280;63189;51.240;9.964;2023-04-22T11:34:54;97180.44;;;21.23;42.76
54910;BME280;63189;51.240;9.964;2023-04-22T11:37:20;97165.78;;;21.19;43.15
54910;BME280;63189;51.240;9.964;2023-04-22T11:39:45;97177.59;;;21.15;41.65
54910;BME280;63189;51.240;9.964;2023-04-22T11:42:12;97173.69;;;21.30;44.92
54910;BME280;63189;51.240;9.964;2023-04-22T11:44:38;97168.56;;;21.38;43.99
54910;BME280;63189;51.240;9.964;2023-04-22T11:47:04;97157.06;;;21.28;41.46
54910;BME280;63189;51.240;9.964;2023-04-22T11:49:29;97167.69;;;21.28;43.31
54910;BME280;63189;51.240;9.964;2023-04-22T11:51:57;97162.53;;;21.36;43.47
54910;BME280;63189;51.240;9.964;2023-04-22T11:54:34;97155.22;;;21.49;45.75
54910;BME280;63189;51.240;9.964;2023-04-22T11:57:02;97154.41;;;21.58;44.49
54910;BME280;63189;51.240;9.964;2023-04-22T11:59:27;97158.63;;;21.71;43.77
54910;BME280;63189;51.240;9.964;2023-04-22T12:01:53;97163.59;;;21.54;41.70
54910;BME280;63189;51.240;9.964;2023-04-22T12:04:24;97146.50;;;21.38;41.50
54910;BME280;63189;51.240;9.964;2023-04-22T12:06:54;97153.22;;;21.42;41.99
54910;BME280;63189;51.240;9.964;2023-04-22T12:09:23;97149.03;;;21.39;42.29
54910;BME280;63189;51.240;9.964;2023-04-22T12:11:50;97147.94;;;21.21;42.20
54910;BME280;63189;51.240;9.964;2023-04-22T12:14:15;97139.22;;;21.30;43.34
54910;BME280;63189;51.240;9.964;2023-04-22T12:16:41;97146.69;;;21.25;41.97
54910;BME280;63189;51.240;9.964;2023-04-22T12:19:07;97148.59;;;21.13;43.47
54910;BME280;63189;51.240;9.964;2023-04-22T12:21:33;97152.44;;;20.99;42.91
54910;BME280;63189;51.240;9.964;2023-04-22T12:24:07;97141.50;;;20.93;42.67
54910;BME280;63189;51.240;9.964;2023-04-22T12:26:35;97151.59;;;20.78;41.70
54910;BME280;63189;51.240;9.964;2023-04-22T12:29:09;97147.41;;;20.75;44.70
54910;BME280;63189;51.240;9.964;2023-04-22T12:31:40;97135.38;;;20.51;42.01
54910;BME280;63189;51.240;9.964;2023-04-22T12:34:06;97140.78;;;20.49;42.65
54910;BME280;63189;51.240;9.964;2023-04-22T12:36:43;97138.66;;;20.32;42.06
54910;BME280;63189;51.240;9.964;2023-04-22T12:39:08;97147.78;;;20.39;43.48
54910;BME280;63189;51.240;9.964;2023-04-22T12:41:34;97140.09;;;20.47;44.11
54910;BME280;63189;51.240;9.964;2023-04-22T12:44:00;97145.13;;;20.50;43.25
54910;BME280;63189;51.240;9.964;2023-04-22T12:46:28;97139.97;;;20.49;43.65
54910;BME280;63189;51.240;9.964;2023-04-22T12:49:00;97141.34;;;20.64;46.65
54910;BME280;63189;51.240;9.964;2023-04-22T12:51:25;97140.28;;;20.76;46.32
54910;BME280;63189;51.240;9.964;2023-04-22T12:53:51;97140.72;;;20.81;43.32
54910;BME280;63189;51.240;9.964;2023-04-22T12:56:17;97142.69;;;20.79;43.30
54910;BME280;63189;51.240;9.964;2023-04-22T12:58:42;97123.88;;;20.82;41.79
54910;BME280;63189;51.240;9.964;2023-04-22T13:01:08;97133.31;;;20.75;42.98
54910;BME280;63189;51.240;9.964;2023-04-22T13:03:33;97140.47;;;20.63;42.75
54910;BME280;63189;51.240;9.964;2023-04-22T13:05:59;97139.59;;;20.53;41.87
54910;BME280;63189;51.240;9.964;2023-04-22T13:08:25;97129.44;;;20.58;42.55
54910;BME280;63189;51.240;9.964;2023-04-22T13:10:51;97132.34;;;20.55;41.36
54910;BME280;63189;51.240;9.964;2023-04-22T13:13:17;97132.00;;;20.49;40.54
54910;BME280;63189;51.240;9.964;2023-04-22T13:15:47;97118.72;;;20.60;42.13